sensor_id;sensor_type;location;lat;lon;timestamp;pressure;altitude;pressure_sealevel;temperature;humidity
71621;BME280;59471;42.254;23.102;2023-03-15T00:02:03;94944.22;;;4.17;69.45
71621;BME280;59471;42.254;23.102;2023-03-15T00:04:29;94953.28;;;4.13;69.03
71621;BME280;59471;42.254;23.102;2023-03-15T00:06:56;94955.78;;;3.80;69.74
71621;BME280;59471;42.254;23.102;2023-03-15T00:09:22;94956.84;;;4.12;69.75
71621;BME280;59471;42.254;23.102;2023-03-15T00:11:49;94967.53;;;4.09;69.24
71621;BME280;59471;42.254;23.102;2023-03-15T00:14:16;94952.63;;;3.94;70.28
71621;BME280;59471;42.254;23.102;2023-03-15T00:16:42;94961.59;;;3.74;70.37
71621;BME280;59471;42.254;23.102;2023-03-15T00:19:09;94958.13;;;4.16;68.34
71621;BME280;59471;42.254;23.102;2023-03-15T00:21:35;94955.09;;;4.21;69.25
71621;BME280;59471;42.254;23.102;2023-03-15T00:24:01;94939.81;;;3.93;70.71
71621;BME280;59471;42.254;23.102;2023-03-15T00:26:27;94931.22;;;3.92;69.54
71621;BME280;59471;42.254;23.102;2023-03-15T00:28:53;94933.31;;;3.97;70.81
71621;BME280;59471;42.254;23.102;2023-03-15T00:31:22;94938.72;;;4.20;68.62
71621;BME280;59471;42.254;23.102;2023-03-15T00:33:50;94938.41;;;4.23;68.35
71621;BME280;59471;42.254;23.102;2023-03-15T00:36:20;94925.53;;;3.81;69.54
71621;BME280;59471;42.254;23.102;2023-03-15T00:38:48;94931.25;;;4.09;68.52
71621;BME280;59471;42.254;23.102;2023-03-15T00:41:15;94922.19;;;4.21;68.96
71621;BME280;59471;42.254;23.102;2023-03-15T00:43:42;94916.03;;;3.98;70.87
71621;BME280;59471;42.254;23.102;2023-03-15T00:46:09;94914.75;;;4.18;70.47
71621;BME280;59471;42.254;23.102;2023-03-15T00:48:35;94914.09;;;4.40;70.00
71621;BME280;59471;42.254;23.102;2023-03-15T00:51:12;94921.56;;;4.35;70.17
71621;BME280;59471;42.254;23.102;2023-03-15T00:53:41;94915.09;;;4.23;70.26
71621;BME280;59471;42.254;23.102;2023-03-15T00:56:10;94921.91;;;4.32;69.78
71621;BME280;59471;42.254;23.102;2023-03-15T00:58:38;94916.22;;;4.61;66.79
71621;BME280;59471;42.254;23.102;2023-03-15T01:03:39;94909.56;;;4.34;68.13
71621;BME280;59471;42.254;23.102;2023-03-15T01:06:11;94909.91;;;4.48;68.64
71621;BME280;59471;42.254;23.102;2023-03-15T01:08:42;94904.88;;;4.38;69.06
71621;BME280;59471;42.254;23.102;2023-03-15T01:11:11;94904.06;;;4.37;68.13
71621;BME280;59471;42.254;23.102;2023-03-15T01:13:38;94895.28;;;4.63;67.88
71621;BME280;59471;42.254;23.102;2023-03-15T01:16:04;94890.13;;;4.55;68.25
71621;BME280;59471;42.254;23.102;2023-03-15T01:18:30;94889.13;;;4.80;67.75
71621;BME280;59471;42.254;23.102;2023-03-15T01:20:56;94882.66;;;4.76;67.68
71621;BME280;59471;42.254;23.102;2023-03-15T01:23:23;94883.00;;;4.73;68.09
71621;BME280;59471;42.254;23.102;2023-03-15T01:25:48;94882.16;;;4.73;68.12
71621;BME280;59471;42.254;23.102;2023-03-15T01:28:14;94874.91;;;4.52;67.54
71621;BME280;59471;42.254;23.102;2023-03-15T01:30:39;94877.47;;;4.76;66.44
71621;BME280;59471;42.254;23.102;2023-03-15T01:33:05;94870.97;;;4.80;67.09
71621;BME280;59471;42.254;23.102;2023-03-15T01:35:31;94865.75;;;4.88;67.69
71621;BME280;59471;42.254;23.102;2023-03-15T01:37:56;94863.19;;;4.72;67.73
71621;BME280;59471;42.254;23.102;2023-03-15T01:40:22;94869.97;;;4.81;68.41
71621;BME280;59471;42.254;23.102;2023-03-15T01:48:21;94844.94;;;4.57;67.86
71621;BME280;59471;42.254;23.102;2023-03-15T01:50:49;94857.97;;;4.88;67.05
71621;BME280;59471;42.254;23.102;2023-03-15T01:53:16;94838.47;;;5.01;66.27
71621;BME280;59471;42.254;23.102;2023-03-15T01:55:42;94841.78;;;4.86;66.60
71621;BME280;59471;42.254;23.102;2023-03-15T01:58:08;94823.56;;;4.95;66.44
71621;BME280;59471;42.254;23.102;2023-03-15T02:00:35;94840.63;;;4.89;67.48
71621;BME280;59471;42.254;23.102;2023-03-15T02:05:37;94833.94;;;4.95;68.48
71621;BME280;59471;42.254;23.102;2023-03-15T02:08:10;94837.25;;;4.80;68.19
71621;BME280;59471;42.254;23.102;2023-03-15T02:10:42;94827.81;;;4.87;67.88
71621;BME280;59471;42.254;23.102;2023-03-15T02:13:10;94834.03;;;4.54;69.50
71621;BME280;59471;42.254;23.102;2023-03-15T02:15:38;94830.19;;;4.41;69.92
71621;BME280;59471;42.254;23.102;2023-03-15T02:18:15;94836.34;;;4.49;69.73
71621;BME280;59471;42.254;23.102;2023-03-15T02:23:26;94833.38;;;4.60;69.51
71621;BME280;59471;42.254;23.102;2023-03-15T02:28:43;94826.06;;;4.72;69.46
71621;BME280;59471;42.254;23.102;2023-03-15T02:31:09;94827.81;;;4.87;69.17
71621;BME280;59471;42.254;23.102;2023-03-15T02:33:42;94808.66;;;4.88;69.42
71621;BME280;59471;42.254;23.102;2023-03-15T02:36:19;94818.16;;;4.65;69.58
71621;BME280;59471;42.254;23.102;2023-03-15T02:38:47;94806.78;;;4.74;69.60
71621;BME280;59471;42.254;23.102;2023-03-15T02:41:17;94805.03;;;4.58;69.56
71621;BME280;59471;42.254;23.102;2023-03-15T02:43:45;94788.06;;;4.39;70.63
71621;BME280;59471;42.254;23.102;2023-03-15T02:46:11;94787.72;;;4.51;70.19
71621;BME280;59471;42.254;23.102;2023-03-15T02:48:39;94777.13;;;4.69;67.68
71621;BME280;59471;42.254;23.102;2023-03-15T02:51:06;94781.09;;;4.48;67.92
71621;BME280;59471;42.254;23.102;2023-03-15T02:53:32;94777.06;;;4.13;69.72
71621;BME280;59471;42.254;23.102;2023-03-15T02:55:58;94774.41;;;4.54;67.87
71621;BME280;59471;42.254;23.102;2023-03-15T02:58:23;94764.69;;;4.64;68.04
71621;BME280;59471;42.254;23.102;2023-03-15T03:00:51;94757.25;;;4.53;68.72
71621;BME280;59471;42.254;23.102;2023-03-15T03:03:18;94748.00;;;4.50;69.98
71621;BME280;59471;42.254;23.102;2023-03-15T03:05:43;94755.06;;;4.09;71.83
71621;BME280;59471;42.254;23.102;2023-03-15T03:08:09;94756.34;;;4.13;71.62
71621;BME280;59471;42.254;23.102;2023-03-15T03:10:34;94756.03;;;4.24;71.36
71621;BME280;59471;42.254;23.102;2023-03-15T03:13:00;94761.53;;;4.13;72.13
71621;BME280;59471;42.254;23.102;2023-03-15T03:15:25;94758.44;;;4.34;70.86
71621;BME280;59471;42.254;23.102;2023-03-15T03:17:51;94757.09;;;4.46;71.14
71621;BME280;59471;42.254;23.102;2023-03-15T03:20:16;94750.44;;;4.52;71.06
71621;BME280;59471;42.254;23.102;2023-03-15T03:22:42;94748.31;;;4.63;70.35
71621;BME280;59471;42.254;23.102;2023-03-15T03:25:09;94745.75;;;4.55;70.98
71621;BME280;59471;42.254;23.102;2023-03-15T03:27:35;94748.84;;;4.43;71.17
71621;BME280;59471;42.254;23.102;2023-03-15T03:30:07;94755.81;;;4.42;70.68
71621;BME280;59471;42.254;23.102;2023-03-15T03:32:35;94751.69;;;4.16;71.24
71621;BME280;59471;42.254;23.102;2023-03-15T03:35:01;94756.06;;;4.08;71.14
71621;BME280;59471;42.254;23.102;2023-03-15T03:37:27;94741.44;;;4.23;70.53
71621;BME280;59471;42.254;23.102;2023-03-15T03:39:55;94736.59;;;4.20;69.46
71621;BME280;59471;42.254;23.102;2023-03-15T03:42:22;94747.31;;;4.01;70.12
71621;BME280;59471;42.254;23.102;2023-03-15T03:44:47;94739.22;;;3.95;70.37
71621;BME280;59471;42.254;23.102;2023-03-15T03:47:14;94736.94;;;4.09;70.51
71621;BME280;59471;42.254;23.102;2023-03-15T03:49:40;94743.91;;;4.16;70.57
71621;BME280;59471;42.254;23.102;2023-03-15T03:52:05;94737.84;;;4.40;69.90
71621;BME280;59471;42.254;23.102;2023-03-15T03:54:31;94729.09;;;4.41;69.13
71621;BME280;59471;42.254;23.102;2023-03-15T03:56:57;94725.38;;;4.36;70.23
71621;BME280;59471;42.254;23.102;2023-03-15T03:59:23;94736.09;;;4.33;69.23
71621;BME280;59471;42.254;23.102;2023-03-15T04:01:48;94743.63;;;4.51;69.15
71621;BME280;59471;42.254;23.102;2023-03-15T04:04:15;94732.09;;;4.61;69.33
71621;BME280;59471;42.254;23.102;2023-03-15T04:06:41;94725.13;;;4.62;69.08
71621;BME280;59471;42.254;23.102;2023-03-15T04:09:14;94728.66;;;4.69;70.00
71621;BME280;59471;42.254;23.102;2023-03-15T04:11:41;94724.13;;;4.71;70.44
71621;BME280;59471;42.254;23.102;2023-03-15T04:14:09;94722.84;;;4.67;69.35
71621;BME280;59471;42.254;23.102;2023-03-15T04:16:35;94717.44;;;4.37;69.33
71621;BME280;59471;42.254;23.102;2023-03-15T04:19:01;94726.28;;;4.04;70.78
71621;BME280;59471;42.254;23.102;2023-03-15T04:21:27;94711.34;;;4.14;70.37
71621;BME280;59471;42.254;23.102;2023-03-15T04:23:57;94705.97;;;4.24;70.51
71621;BME280;59471;42.254;23.102;2023-03-15T04:26:24;94698.66;;;4.35;70.30
71621;BME280;59471;42.254;23.102;2023-03-15T04:28:55;94694.72;;;4.48;69.70
71621;BME280;59471;42.254;23.102;2023-03-15T04:31:22;94701.78;;;4.62;69.81
71621;BME280;59471;42.254;23.102;2023-03-15T04:33:52;94696.97;;;4.51;70.64
71621;BME280;59471;42.254;23.102;2023-03-15T04:36:19;94688.69;;;4.55;69.81
71621;BME280;59471;42.254;23.102;2023-03-15T04:38:45;94702.78;;;4.61;69.70
71621;BME280;59471;42.254;23.102;2023-03-15T04:41:15;94706.31;;;4.68;69.88
71621;BME280;59471;42.254;23.102;2023-03-15T04:43:42;94711.31;;;4.70;70.62
71621;BME280;59471;42.254;23.102;2023-03-15T04:46:08;94707.16;;;4.60;69.84
71621;BME280;59471;42.254;23.102;2023-03-15T04:48:35;94720.34;;;4.82;68.68
71621;BME280;59471;42.254;23.102;2023-03-15T04:51:01;94694.88;;;4.85;68.58
71621;BME280;59471;42.254;23.102;2023-03-15T04:53:27;94708.03;;;4.84;67.43
71621;BME280;59471;42.254;23.102;2023-03-15T04:55:52;94713.41;;;4.74;68.11
71621;BME280;59471;42.254;23.102;2023-03-15T04:58:19;94714.59;;;4.95;69.42
71621;BME280;59471;42.254;23.102;2023-03-15T05:00:44;94718.78;;;5.04;68.60
71621;BME280;59471;42.254;23.102;2023-03-15T05:03:10;94728.22;;;4.97;69.09
71621;BME280;59471;42.254;23.102;2023-03-15T05:05:35;94718.50;;;4.99;69.98
71621;BME280;59471;42.254;23.102;2023-03-15T05:08:01;94716.72;;;4.91;69.76
71621;BME280;59471;42.254;23.102;2023-03-15T05:10:27;94718.97;;;4.63;70.31
71621;BME280;59471;42.254;23.102;2023-03-15T05:12:54;94716.66;;;4.76;69.97
71621;BME280;59471;42.254;23.102;2023-03-15T05:15:20;94718.66;;;4.97;68.50
71621;BME280;59471;42.254;23.102;2023-03-15T05:17:46;94711.31;;;4.70;70.26
71621;BME280;59471;42.254;23.102;2023-03-15T05:20:13;94711.25;;;4.47;71.19
71621;BME280;59471;42.254;23.102;2023-03-15T05:22:39;94705.31;;;4.69;69.68
71621;BME280;59471;42.254;23.102;2023-03-15T05:25:06;94706.44;;;5.06;69.40
71621;BME280;59471;42.254;23.102;2023-03-15T05:27:32;94708.31;;;5.20;69.63
71621;BME280;59471;42.254;23.102;2023-03-15T05:29:59;94705.41;;;5.15;70.26
71621;BME280;59471;42.254;23.102;2023-03-15T05:32:31;94706.44;;;5.06;69.10
71621;BME280;59471;42.254;23.102;2023-03-15T05:35:05;94703.16;;;4.81;69.64
71621;BME280;59471;42.254;23.102;2023-03-15T05:37:32;94708.81;;;4.84;69.23
71621;BME280;59471;42.254;23.102;2023-03-15T05:39:58;94714.25;;;4.98;68.88
71621;BME280;59471;42.254;23.102;2023-03-15T05:42:25;94714.47;;;5.19;67.62
71621;BME280;59471;42.254;23.102;2023-03-15T05:44:55;94708.03;;;5.07;67.70
71621;BME280;59471;42.254;23.102;2023-03-15T05:47:21;94714.69;;;5.32;66.78
71621;BME280;59471;42.254;23.102;2023-03-15T05:49:48;94715.91;;;5.45;66.35
71621;BME280;59471;42.254;23.102;2023-03-15T05:52:14;94707.31;;;5.67;65.21
71621;BME280;59471;42.254;23.102;2023-03-15T05:54:40;94706.19;;;5.47;66.06
71621;BME280;59471;42.254;23.102;2023-03-15T05:57:06;94693.75;;;5.57;66.92
71621;BME280;59471;42.254;23.102;2023-03-15T05:59:32;94696.88;;;5.29;66.83
71621;BME280;59471;42.254;23.102;2023-03-15T06:01:58;94697.38;;;5.33;66.92
71621;BME280;59471;42.254;23.102;2023-03-15T06:04:23;94706.28;;;5.53;66.80
71621;BME280;59471;42.254;23.102;2023-03-15T06:06:50;94711.19;;;5.71;66.16
71621;BME280;59471;42.254;23.102;2023-03-15T06:09:16;94703.56;;;5.93;67.40
71621;BME280;59471;42.254;23.102;2023-03-15T06:11:42;94695.78;;;6.08;66.25
71621;BME280;59471;42.254;23.102;2023-03-15T06:14:07;94698.22;;;6.09;65.86
71621;BME280;59471;42.254;23.102;2023-03-15T06:16:33;94694.44;;;6.26;65.01
71621;BME280;59471;42.254;23.102;2023-03-15T06:18:58;94691.84;;;6.26;64.03
71621;BME280;59471;42.254;23.102;2023-03-15T06:21:24;94688.78;;;6.08;64.94
71621;BME280;59471;42.254;23.102;2023-03-15T06:23:50;94690.97;;;6.19;64.44
71621;BME280;59471;42.254;23.102;2023-03-15T06:26:15;94690.88;;;6.28;64.64
71621;BME280;59471;42.254;23.102;2023-03-15T06:28:43;94689.16;;;6.20;63.47
71621;BME280;59471;42.254;23.102;2023-03-15T06:31:11;94702.00;;;6.51;64.38
71621;BME280;59471;42.254;23.102;2023-03-15T06:33:37;94701.44;;;6.56;65.11
71621;BME280;59471;42.254;23.102;2023-03-15T06:36:04;94700.03;;;6.53;64.14
71621;BME280;59471;42.254;23.102;2023-03-15T06:38:30;94705.66;;;6.57;62.88
71621;BME280;59471;42.254;23.102;2023-03-15T06:40:57;94711.41;;;6.82;61.48
71621;BME280;59471;42.254;23.102;2023-03-15T06:43:25;94696.75;;;6.81;63.73
71621;BME280;59471;42.254;23.102;2023-03-15T06:45:50;94712.56;;;6.64;63.47
71621;BME280;59471;42.254;23.102;2023-03-15T06:48:17;94710.75;;;6.80;64.30
71621;BME280;59471;42.254;23.102;2023-03-15T06:50:43;94701.78;;;6.97;66.07
71621;BME280;59471;42.254;23.102;2023-03-15T06:53:09;94708.84;;;7.25;65.96
71621;BME280;59471;42.254;23.102;2023-03-15T06:55:34;94702.41;;;7.20;66.41
71621;BME280;59471;42.254;23.102;2023-03-15T06:58:00;94701.59;;;6.84;65.12
71621;BME280;59471;42.254;23.102;2023-03-15T07:00:26;94697.88;;;6.71;66.31
71621;BME280;59471;42.254;23.102;2023-03-15T07:02:51;94698.94;;;6.62;66.45
71621;BME280;59471;42.254;23.102;2023-03-15T07:05:17;94702.28;;;7.07;66.48
71621;BME280;59471;42.254;23.102;2023-03-15T07:07:42;94697.03;;;6.86;66.42
71621;BME280;59471;42.254;23.102;2023-03-15T07:10:08;94695.88;;;6.73;67.42
71621;BME280;59471;42.254;23.102;2023-03-15T07:12:34;94698.75;;;6.79;66.44
71621;BME280;59471;42.254;23.102;2023-03-15T07:15:00;94697.22;;;7.20;65.68
71621;BME280;59471;42.254;23.102;2023-03-15T07:17:26;94706.88;;;7.27;65.25
71621;BME280;59471;42.254;23.102;2023-03-15T07:19:51;94698.47;;;7.46;65.04
71621;BME280;59471;42.254;23.102;2023-03-15T07:22:17;94700.09;;;7.47;63.96
71621;BME280;59471;42.254;23.102;2023-03-15T07:24:42;94699.28;;;7.25;64.34
71621;BME280;59471;42.254;23.102;2023-03-15T07:27:11;94699.78;;;7.35;64.72
71621;BME280;59471;42.254;23.102;2023-03-15T07:29:37;94682.03;;;7.46;63.71
71621;BME280;59471;42.254;23.102;2023-03-15T07:32:03;94680.72;;;7.56;63.76
71621;BME280;59471;42.254;23.102;2023-03-15T07:34:29;94685.31;;;7.54;63.53
71621;BME280;59471;42.254;23.102;2023-03-15T07:36:54;94675.25;;;7.73;62.74
71621;BME280;59471;42.254;23.102;2023-03-15T07:39:20;94674.09;;;7.54;63.12
71621;BME280;59471;42.254;23.102;2023-03-15T07:41:47;94671.28;;;7.77;62.21
71621;BME280;59471;42.254;23.102;2023-03-15T07:44:13;94668.69;;;8.05;61.26
71621;BME280;59471;42.254;23.102;2023-03-15T07:46:39;94669.56;;;8.19;60.49
71621;BME280;59471;42.254;23.102;2023-03-15T07:49:05;94666.44;;;8.30;59.74
71621;BME280;59471;42.254;23.102;2023-03-15T07:51:30;94663.63;;;8.03;60.05
71621;BME280;59471;42.254;23.102;2023-03-15T07:53:56;94669.59;;;8.25;60.74
71621;BME280;59471;42.254;23.102;2023-03-15T07:56:22;94671.78;;;8.22;60.33
71621;BME280;59471;42.254;23.102;2023-03-15T07:58:47;94671.19;;;8.20;60.57
71621;BME280;59471;42.254;23.102;2023-03-15T08:01:13;94675.78;;;8.18;59.42
71621;BME280;59471;42.254;23.102;2023-03-15T08:03:38;94675.53;;;8.12;59.64
71621;BME280;59471;42.254;23.102;2023-03-15T08:06:04;94666.06;;;8.33;60.20
71621;BME280;59471;42.254;23.102;2023-03-15T08:08:30;94667.13;;;8.10;58.83
71621;BME280;59471;42.254;23.102;2023-03-15T08:10:55;94671.97;;;8.13;59.06
71621;BME280;59471;42.254;23.102;2023-03-15T08:13:21;94670.88;;;8.36;59.66
71621;BME280;59471;42.254;23.102;2023-03-15T08:15:46;94669.25;;;8.35;58.71
71621;BME280;59471;42.254;23.102;2023-03-15T08:18:12;94661.38;;;8.56;57.46
71621;BME280;59471;42.254;23.102;2023-03-15T08:20:38;94665.81;;;8.63;57.22
71621;BME280;59471;42.254;23.102;2023-03-15T08:23:04;94664.66;;;8.72;57.00
71621;BME280;59471;42.254;23.102;2023-03-15T08:25:31;94672.94;;;8.82;54.98
71621;BME280;59471;42.254;23.102;2023-03-15T08:27:57;94673.59;;;9.04;52.81
71621;BME280;59471;42.254;23.102;2023-03-15T08:30:22;94681.66;;;9.02;46.76
71621;BME280;59471;42.254;23.102;2023-03-15T08:32:49;94681.72;;;9.36;46.66
71621;BME280;59471;42.254;23.102;2023-03-15T08:35:17;94688.59;;;9.43;45.48
71621;BME280;59471;42.254;23.102;2023-03-15T08:37:45;94677.13;;;9.44;44.54
71621;BME280;59471;42.254;23.102;2023-03-15T08:40:16;94676.94;;;9.46;44.36
71621;BME280;59471;42.254;23.102;2023-03-15T08:42:47;94682.13;;;9.39;44.72
71621;BME280;59471;42.254;23.102;2023-03-15T08:45:13;94671.72;;;9.52;43.25
71621;BME280;59471;42.254;23.102;2023-03-15T08:47:40;94672.13;;;9.56;43.23
71621;BME280;59471;42.254;23.102;2023-03-15T08:50:09;94666.06;;;9.42;43.32
71621;BME280;59471;42.254;23.102;2023-03-15T08:52:37;94667.31;;;9.53;45.99
71621;BME280;59471;42.254;23.102;2023-03-15T08:55:03;94658.03;;;9.64;43.71
71621;BME280;59471;42.254;23.102;2023-03-15T08:57:30;94659.28;;;9.81;45.42
71621;BME280;59471;42.254;23.102;2023-03-15T09:00:02;94647.41;;;9.72;44.05
71621;BME280;59471;42.254;23.102;2023-03-15T09:02:35;94639.16;;;9.68;44.53
71621;BME280;59471;42.254;23.102;2023-03-15T09:05:02;94643.56;;;9.61;43.40
71621;BME280;59471;42.254;23.102;2023-03-15T09:07:31;94629.09;;;9.59;44.35
71621;BME280;59471;42.254;23.102;2023-03-15T09:09:57;94637.97;;;9.71;43.64
71621;BME280;59471;42.254;23.102;2023-03-15T09:12:22;94633.94;;;9.62;43.29
71621;BME280;59471;42.254;23.102;2023-03-15T09:14:49;94639.75;;;9.64;43.46
71621;BME280;59471;42.254;23.102;2023-03-15T09:17:14;94644.00;;;9.65;44.29
71621;BME280;59471;42.254;23.102;2023-03-15T09:19:40;94641.56;;;9.63;44.23
71621;BME280;59471;42.254;23.102;2023-03-15T09:22:06;94641.97;;;9.80;43.14
71621;BME280;59471;42.254;23.102;2023-03-15T09:24:31;94638.13;;;9.83;44.72
71621;BME280;59471;42.254;23.102;2023-03-15T09:26:57;94635.94;;;9.80;45.35
71621;BME280;59471;42.254;23.102;2023-03-15T09:29:23;94636.31;;;9.83;44.99
71621;BME280;59471;42.254;23.102;2023-03-15T09:31:48;94643.78;;;10.00;46.79
71621;BME280;59471;42.254;23.102;2023-03-15T09:34:14;94638.72;;;10.05;45.27
71621;BME280;59471;42.254;23.102;2023-03-15T09:36:39;94644.34;;;10.15;45.61
71621;BME280;59471;42.254;23.102;2023-03-15T09:39:05;94645.59;;;10.06;45.45
71621;BME280;59471;42.254;23.102;2023-03-15T09:47:26;94656.25;;;9.71;46.39
71621;BME280;59471;42.254;23.102;2023-03-15T09:50:02;94655.81;;;9.47;46.90
71621;BME280;59471;42.254;23.102;2023-03-15T09:52:40;94648.38;;;9.58;47.78
71621;BME280;59471;42.254;23.102;2023-03-15T09:55:27;94655.00;;;9.27;50.21
71621;BME280;59471;42.254;23.102;2023-03-15T09:57:57;94666.44;;;9.26;50.04
71621;BME280;59471;42.254;23.102;2023-03-15T10:03:31;94670.06;;;9.32;51.73
71621;BME280;59471;42.254;23.102;2023-03-15T10:06:17;94668.63;;;9.16;51.73
71621;BME280;59471;42.254;23.102;2023-03-15T10:08:48;94666.75;;;8.90;52.57
71621;BME280;59471;42.254;23.102;2023-03-15T10:14:25;94659.19;;;9.15;52.55
71621;BME280;59471;42.254;23.102;2023-03-15T10:16:58;94657.63;;;9.27;53.18
71621;BME280;59471;42.254;23.102;2023-03-15T10:19:36;94656.63;;;9.35;51.66
71621;BME280;59471;42.254;23.102;2023-03-15T10:24:49;94657.25;;;9.43;52.08
71621;BME280;59471;42.254;23.102;2023-03-15T10:27:36;94653.63;;;9.58;52.06
71621;BME280;59471;42.254;23.102;2023-03-15T10:30:16;94655.25;;;9.72;51.04
71621;BME280;59471;42.254;23.102;2023-03-15T10:32:53;94660.47;;;9.85;50.51
71621;BME280;59471;42.254;23.102;2023-03-15T10:35:22;94662.69;;;9.88;50.16
71621;BME280;59471;42.254;23.102;2023-03-15T10:37:47;94649.22;;;9.91;50.05
71621;BME280;59471;42.254;23.102;2023-03-15T10:40:14;94653.19;;;10.14;49.10
71621;BME280;59471;42.254;23.102;2023-03-15T10:42:45;94650.38;;;10.22;47.97
71621;BME280;59471;42.254;23.102;2023-03-15T10:45:19;94651.19;;;10.29;47.74
71621;BME280;59471;42.254;23.102;2023-03-15T10:47:47;94641.75;;;10.21;44.86
71621;BME280;59471;42.254;23.102;2023-03-15T10:50:32;94644.09;;;10.50;46.42
71621;BME280;59471;42.254;23.102;2023-03-15T10:53:00;94629.47;;;10.29;46.80
71621;BME280;59471;42.254;23.102;2023-03-15T10:55:41;94633.13;;;9.81;42.88
71621;BME280;59471;42.254;23.102;2023-03-15T10:58:24;94631.09;;;10.10;41.81
71621;BME280;59471;42.254;23.102;2023-03-15T11:01:07;94629.06;;;10.18;42.09
71621;BME280;59471;42.254;23.102;2023-03-15T11:03:36;94629.88;;;10.19;41.54
71621;BME280;59471;42.254;23.102;2023-03-15T11:06:18;94632.47;;;10.19;41.16
71621;BME280;59471;42.254;23.102;2023-03-15T11:08:45;94625.03;;;10.16;40.66
71621;BME280;59471;42.254;23.102;2023-03-15T11:11:11;94627.44;;;10.11;42.86
71621;BME280;59471;42.254;23.102;2023-03-15T11:13:38;94618.63;;;9.98;41.67
71621;BME280;59471;42.254;23.102;2023-03-15T11:16:20;94608.38;;;9.90;42.31
71621;BME280;59471;42.254;23.102;2023-03-15T11:18:54;94623.84;;;9.98;40.68
71621;BME280;59471;42.254;23.102;2023-03-15T11:21:25;94623.06;;;9.91;40.93
71621;BME280;59471;42.254;23.102;2023-03-15T11:23:58;94615.03;;;9.73;40.72
71621;BME280;59471;42.254;23.102;2023-03-15T11:26:26;94610.41;;;9.75;41.85
71621;BME280;59471;42.254;23.102;2023-03-15T11:28:55;94610.19;;;9.57;41.27
71621;BME280;59471;42.254;23.102;2023-03-15T11:31:26;94610.75;;;9.98;39.91
71621;BME280;59471;42.254;23.102;2023-03-15T11:33:56;94608.16;;;9.92;40.36
71621;BME280;59471;42.254;23.102;2023-03-15T11:36:44;94600.53;;;9.77;39.87
71621;BME280;59471;42.254;23.102;2023-03-15T11:39:13;94601.72;;;9.94;38.19
71621;BME280;59471;42.254;23.102;2023-03-15T11:41:44;94607.97;;;9.80;39.20
71621;BME280;59471;42.254;23.102;2023-03-15T11:49:36;94601.16;;;9.66;38.70
71621;BME280;59471;42.254;23.102;2023-03-15T11:52:07;94612.63;;;9.65;38.80
71621;BME280;59471;42.254;23.102;2023-03-15T11:54:33;94610.19;;;9.50;39.61
71621;BME280;59471;42.254;23.102;2023-03-15T11:57:03;94607.81;;;9.62;39.76
71621;BME280;59471;42.254;23.102;2023-03-15T12:04:47;94602.34;;;9.70;40.51
71621;BME280;59471;42.254;23.102;2023-03-15T12:09:54;94608.59;;;9.56;41.83
71621;BME280;59471;42.254;23.102;2023-03-15T12:12:44;94592.88;;;9.22;42.51
71621;BME280;59471;42.254;23.102;2023-03-15T12:17:55;94592.91;;;9.56;44.23
71621;BME280;59471;42.254;23.102;2023-03-15T12:25:55;94590.88;;;9.84;44.49
71621;BME280;59471;42.254;23.102;2023-03-15T12:31:16;94593.09;;;9.61;44.95
71621;BME280;59471;42.254;23.102;2023-03-15T12:33:45;94589.09;;;9.65;44.76
71621;BME280;59471;42.254;23.102;2023-03-15T12:36:25;94584.44;;;9.67;44.51
71621;BME280;59471;42.254;23.102;2023-03-15T12:39:19;94590.50;;;9.61;45.35
71621;BME280;59471;42.254;23.102;2023-03-15T12:41:58;94602.16;;;9.51;46.30
71621;BME280;59471;42.254;23.102;2023-03-15T12:44:26;94588.47;;;9.36;45.85
71621;BME280;59471;42.254;23.102;2023-03-15T12:47:04;94590.91;;;9.38;46.18
71621;BME280;59471;42.254;23.102;2023-03-15T12:49:39;94592.50;;;9.19;47.30
71621;BME280;59471;42.254;23.102;2023-03-15T12:54:49;94594.06;;;9.07;48.65
71621;BME280;59471;42.254;23.102;2023-03-15T12:57:21;94590.06;;;9.11;49.63
71621;BME280;59471;42.254;23.102;2023-03-15T12:59:58;94590.03;;;8.97;51.12
71621;BME280;59471;42.254;23.102;2023-03-15T13:02:32;94596.97;;;8.64;54.16
71621;BME280;59471;42.254;23.102;2023-03-15T13:05:46;94594.81;;;8.80;53.95
71621;BME280;59471;42.254;23.102;2023-03-15T13:07:57;94603.97;;;8.56;54.07
71621;BME280;59471;42.254;23.102;2023-03-15T13:14:06;94593.13;;;8.53;52.76
71621;BME280;59471;42.254;23.102;2023-03-15T13:16:55;94600.38;;;8.57;51.86
71621;BME280;59471;42.254;23.102;2023-03-15T13:19:30;94607.13;;;8.39;52.00
71621;BME280;59471;42.254;23.102;2023-03-15T13:25:19;94602.97;;;8.23;53.38
71621;BME280;59471;42.254;23.102;2023-03-15T13:28:02;94606.31;;;8.10;54.96
71621;BME280;59471;42.254;23.102;2023-03-15T13:36:02;94610.25;;;8.27;56.89
71621;BME280;59471;42.254;23.102;2023-03-15T13:38:49;94601.44;;;8.35;58.12
71621;BME280;59471;42.254;23.102;2023-03-15T13:41:28;94603.84;;;8.30;59.92
71621;BME280;59471;42.254;23.102;2023-03-15T13:44:00;94606.22;;;8.25;60.84
71621;BME280;59471;42.254;23.102;2023-03-15T13:46:29;94612.56;;;8.16;60.68
71621;BME280;59471;42.254;23.102;2023-03-15T13:48:55;94612.97;;;8.12;61.63
71621;BME280;59471;42.254;23.102;2023-03-15T13:51:33;94622.44;;;7.85;62.48
71621;BME280;59471;42.254;23.102;2023-03-15T13:54:02;94615.91;;;7.75;63.31
71621;BME280;59471;42.254;23.102;2023-03-15T13:56:31;94617.25;;;7.92;62.38
71621;BME280;59471;42.254;23.102;2023-03-15T13:59:00;94614.00;;;7.83;62.96
71621;BME280;59471;42.254;23.102;2023-03-15T14:01:27;94618.69;;;7.66;63.67
71621;BME280;59471;42.254;23.102;2023-03-15T14:04:17;94630.72;;;7.68;64.47
71621;BME280;59471;42.254;23.102;2023-03-15T14:06:43;94626.84;;;7.85;64.09
71621;BME280;59471;42.254;23.102;2023-03-15T14:09:23;94634.00;;;7.76;63.94
71621;BME280;59471;42.254;23.102;2023-03-15T14:12:06;94625.13;;;7.71;64.85
71621;BME280;59471;42.254;23.102;2023-03-15T14:14:49;94629.53;;;7.70;65.06
71621;BME280;59471;42.254;23.102;2023-03-15T14:17:27;94625.06;;;7.64;65.29
71621;BME280;59471;42.254;23.102;2023-03-15T14:20:14;94607.59;;;7.86;64.65